createdAt,value
2023-03-20T08:01:48.370Z,99091.34
2023-03-20T08:04:19.500Z,99099.72
2023-03-20T08:06:47.097Z,99098.41
2023-03-20T08:09:14.695Z,99103.00
2023-03-20T08:11:42.547Z,99104.59
2023-03-20T08:14:09.963Z,99087.50
2023-03-20T08:16:37.745Z,99093.06
2023-03-20T08:19:06.272Z,99092.47
2023-03-20T08:21:33.912Z,99082.34
2023-03-20T08:24:01.492Z,99092.22
2023-03-20T08:26:28.862Z,99073.13
2023-03-20T08:28:56.266Z,99091.63
2023-03-20T08:31:23.664Z,99083.78
2023-03-20T08:33:52.063Z,99089.06
2023-03-20T08:36:20.869Z,99086.28
2023-03-20T08:38:50.287Z,99084.28
2023-03-20T08:41:19.059Z,99082.69
2023-03-20T08:43:47.699Z,99085.63
2023-03-20T08:46:15.193Z,99090.88
2023-03-20T08:48:42.632Z,99085.34
2023-03-20T08:51:10.204Z,99087.41
2023-03-20T08:53:37.557Z,99084.28
2023-03-20T08:56:05.856Z,99089.84
2023-03-20T08:58:33.345Z,99081.50
2023-03-20T09:01:10.441Z,99077.06
2023-03-20T09:03:38.133Z,99077.56
2023-03-20T09:06:09.422Z,99082.50
2023-03-20T09:08:36.909Z,99082.84
2023-03-20T09:11:06.131Z,99079.72
2023-03-20T09:13:33.921Z,99081.06
2023-03-20T09:16:01.363Z,99074.38
2023-03-20T09:18:28.869Z,99072.06
2023-03-20T09:20:56.779Z,99053.22
2023-03-20T09:23:24.234Z,99065.28
2023-03-20T09:25:51.694Z,99070.75
2023-03-20T09:28:19.634Z,99070.78
2023-03-20T09:30:47.047Z,99072.16
2023-03-20T09:33:15.005Z,99084.06
2023-03-20T09:35:43.768Z,99074.13
2023-03-20T09:38:12.385Z,99085.50
2023-03-20T09:41:02.965Z,99059.75
2023-03-20T09:44:20.984Z,99085.44
2023-03-20T09:47:44.190Z,99085.56
2023-03-20T09:50:54.942Z,99101.59
2023-03-20T09:53:41.062Z,99082.13
2023-03-20T09:56:25.344Z,99084.13
2023-03-20T09:59:06.426Z,99091.84
2023-03-20T10:01:55.265Z,99087.72
2023-03-20T10:04:28.626Z,99078.75
2023-03-20T10:06:56.971Z,99081.53
2023-03-20T10:09:32.676Z,99081.66
2023-03-20T10:12:49.677Z,99074.78
2023-03-20T10:16:01.861Z,99086.66
2023-03-20T10:18:32.803Z,99077.19
2023-03-20T10:21:31.871Z,99067.13
2023-03-20T10:24:15.833Z,99072.22
2023-03-20T10:26:43.642Z,99076.19
2023-03-20T10:29:53.003Z,99082.03
2023-03-20T10:32:36.228Z,99076.19
2023-03-20T10:36:04.724Z,99078.53
2023-03-20T10:39:33.915Z,99088.03
2023-03-20T10:42:10.422Z,99092.56
2023-03-20T10:44:53.335Z,99093.28
2023-03-20T10:47:25.080Z,99088.88
2023-03-20T10:50:06.359Z,99083.66
2023-03-20T10:52:40.554Z,99096.06
2023-03-20T10:55:27.169Z,99099.69
2023-03-20T10:58:26.642Z,99088.03
2023-03-20T11:00:57.200Z,99082.38
2023-03-20T11:03:29.631Z,99084.13
2023-03-20T11:06:23.023Z,99079.28
2023-03-20T11:08:53.333Z,99083.69
2023-03-20T11:11:30.800Z,99088.63
2023-03-20T11:14:09.333Z,99092.69
2023-03-20T11:16:38.922Z,99087.25
2023-03-20T11:19:11.657Z,99082.81
2023-03-20T11:22:23.150Z,99080.75
2023-03-20T11:25:02.578Z,99083.47
2023-03-20T11:27:36.874Z,99077.56
2023-03-20T11:30:08.399Z,99080.09
2023-03-20T11:32:47.155Z,99074.09
2023-03-20T11:35:26.335Z,99080.91
2023-03-20T11:38:14.926Z,99074.91
2023-03-20T11:40:42.321Z,99074.59
2023-03-20T11:43:27.179Z,99066.81
2023-03-20T11:46:01.430Z,99068.97
2023-03-20T11:48:46.967Z,99059.25
2023-03-20T11:51:21.763Z,99061.94
2023-03-20T11:53:48.955Z,99060.72
2023-03-20T11:56:26.636Z,99063.00
2023-03-20T11:59:14.942Z,99058.69
2023-03-20T12:01:53.579Z,99050.94
2023-03-20T12:04:41.978Z,99054.22
2023-03-20T12:07:35.103Z,99042.78
2023-03-20T12:10:12.833Z,99041.41
2023-03-20T12:12:54.841Z,99037.94
2023-03-20T12:15:42.010Z,99029.97
2023-03-20T12:19:01.641Z,99029.63
2023-03-20T12:22:21.635Z,99010.84
2023-03-20T12:25:52.804Z,99026.41
2023-03-20T12:28:46.830Z,99017.25
2023-03-20T12:32:03.850Z,99020.69
2023-03-20T12:34:44.943Z,99012.75
2023-03-20T12:37:13.685Z,99012.69
2023-03-20T12:39:59.309Z,99012.25
2023-03-20T12:43:02.700Z,99003.31
2023-03-20T12:45:48.579Z,99012.16
2023-03-20T12:48:38.141Z,99008.47
2023-03-20T12:51:41.763Z,98991.50
2023-03-20T12:55:21.160Z,98995.38
2023-03-20T12:58:41.079Z,98986.25
2023-03-20T13:01:27.639Z,98980.41
2023-03-20T13:04:45.224Z,98984.16
2023-03-20T13:07:25.951Z,98988.03
2023-03-20T13:10:24.485Z,98982.44
2023-03-20T13:13:13.026Z,98971.53
2023-03-20T13:16:20.743Z,98961.31
2023-03-20T13:19:49.248Z,98959.84
2023-03-20T13:23:08.536Z,98962.75
2023-03-20T13:25:53.683Z,98953.53
2023-03-20T13:28:54.525Z,98955.38
2023-03-20T13:32:02.224Z,98953.75
2023-03-20T13:35:14.959Z,98951.38
2023-03-20T13:38:07.338Z,98939.41
2023-03-20T13:40:44.186Z,98937.84
2023-03-20T13:43:49.893Z,98935.00
2023-03-20T13:46:26.782Z,98926.47
2023-03-20T13:48:58.785Z,98924.50
2023-03-20T13:52:01.865Z,98929.38
2023-03-20T13:55:11.482Z,98926.03
2023-03-20T13:57:57.043Z,98927.09
2023-03-20T14:00:46.404Z,98926.66
2023-03-20T14:03:37.794Z,98921.97
2023-03-20T14:06:47.405Z,98926.47
2023-03-20T14:09:38.956Z,98921.22
2023-03-20T14:12:13.458Z,98921.72
2023-03-20T14:14:55.130Z,98920.69
2023-03-20T14:17:30.876Z,98922.25
2023-03-20T14:20:10.628Z,98920.78
2023-03-20T14:22:44.573Z,98912.81
2023-03-20T14:25:21.847Z,98912.63
2023-03-20T14:28:27.256Z,98900.31
2023-03-20T14:31:34.287Z,98901.34
2023-03-20T14:34:12.172Z,98902.09
2023-03-20T14:37:02.035Z,98906.38
2023-03-20T14:40:15.622Z,98899.22
2023-03-20T14:43:03.260Z,98906.59
2023-03-20T14:46:03.709Z,98900.34
2023-03-20T14:48:47.626Z,98900.34
2023-03-20T14:51:41.416Z,98892.72
2023-03-20T14:54:31.111Z,98883.22
2023-03-20T14:57:26.559Z,98881.97
2023-03-20T14:59:55.355Z,98890.25
2023-03-20T15:02:36.412Z,98887.09
2023-03-20T15:05:04.766Z,98884.50
2023-03-20T15:07:39.559Z,98889.13
2023-03-20T15:10:08.137Z,98877.97
2023-03-20T15:12:37.583Z,98879.00
2023-03-20T15:15:27.859Z,98883.81
2023-03-20T15:17:55.316Z,98881.38
2023-03-20T15:20:31.867Z,98878.41
2023-03-20T15:23:02.554Z,98880.56
2023-03-20T15:25:47.522Z,98877.63
2023-03-20T15:28:26.100Z,98875.25
2023-03-20T15:30:59.194Z,98875.50
2023-03-20T15:33:45.787Z,98868.22
2023-03-20T15:36:28.516Z,98877.94
2023-03-20T15:39:27.246Z,98870.19
2023-03-20T15:42:09.698Z,98859.78
2023-03-20T15:44:41.747Z,98868.50
2023-03-20T15:47:22.906Z,98858.28
2023-03-20T15:50:00.719Z,98862.66
2023-03-20T15:52:42.526Z,98863.31
2023-03-20T15:55:20.008Z,98857.25
2023-03-20T15:57:50.302Z,98853.66
2023-03-20T16:00:34.209Z,98856.84
2023-03-20T16:03:07.774Z,98851.53
2023-03-20T16:05:36.184Z,98853.38
2023-03-20T16:08:30.952Z,98844.66
2023-03-20T16:11:19.084Z,98843.38
2023-03-20T16:13:49.924Z,98839.94
2023-03-20T16:16:24.613Z,98841.31
2023-03-20T16:18:52.440Z,98833.53
2023-03-20T16:21:32.136Z,98830.84
2023-03-20T16:24:01.485Z,98829.09
2023-03-20T16:26:29.217Z,98834.84
2023-03-20T16:29:02.703Z,98825.84
2023-03-20T16:31:35.228Z,98831.69
2023-03-20T16:34:18.065Z,98832.44
2023-03-20T16:36:56.454Z,98843.53
2023-03-20T16:39:30.730Z,98829.84
2023-03-20T16:42:23.995Z,98834.94
2023-03-20T16:44:58.859Z,98831.91
2023-03-20T16:47:38.416Z,98831.00
2023-03-20T16:50:22.790Z,98835.88
2023-03-20T16:52:58.680Z,98826.38
2023-03-20T16:55:35.140Z,98827.19
2023-03-20T16:58:07.352Z,98833.56
2023-03-20T17:01:04.500Z,98835.53
2023-03-20T17:03:49.476Z,98839.50
2023-03-20T17:06:20.711Z,98836.66
2023-03-20T17:09:13.181Z,98832.31
2023-03-20T17:11:50.327Z,98837.50
2023-03-20T17:14:20.792Z,98835.13
2023-03-20T17:16:48.338Z,98839.03
2023-03-20T17:19:19.352Z,98845.84
2023-03-20T17:21:47.784Z,98854.88
2023-03-20T17:24:17.417Z,98854.91
2023-03-20T17:26:57.195Z,98845.03
2023-03-20T17:29:24.621Z,98853.31
2023-03-20T17:31:52.690Z,98854.38
2023-03-20T17:34:20.110Z,98851.59
2023-03-20T17:36:48.959Z,98848.44
2023-03-20T17:39:21.097Z,98843.63
2023-03-20T17:41:48.625Z,98849.44
2023-03-20T17:44:16.075Z,98849.50
2023-03-20T17:46:57.277Z,98841.09
2023-03-20T17:49:27.521Z,98840.84
2023-03-20T17:51:56.187Z,98840.44
2023-03-20T17:54:23.687Z,98840.03
2023-03-20T17:56:51.133Z,98832.66
2023-03-20T17:59:18.493Z,98844.25
2023-03-20T18:01:46.041Z,98840.25
2023-03-20T18:04:13.530Z,98837.78
2023-03-20T18:06:40.996Z,98845.00
2023-03-20T18:09:13.338Z,98838.59
2023-03-20T18:11:41.172Z,98846.38
2023-03-20T18:14:08.688Z,98847.59
2023-03-20T18:16:36.259Z,98851.31
2023-03-20T18:19:03.820Z,98849.78
2023-03-20T18:21:31.232Z,98853.78
2023-03-20T18:23:58.651Z,98845.03
2023-03-20T18:26:27.652Z,98857.16
2023-03-20T18:28:56.233Z,98843.72
2023-03-20T18:31:23.854Z,98853.91
2023-03-20T18:33:53.405Z,98856.25
2023-03-20T18:36:24.462Z,98855.81
2023-03-20T18:38:52.581Z,98862.44
2023-03-20T18:41:20.917Z,98856.84
2023-03-20T18:43:48.674Z,98857.81
2023-03-20T18:46:26.021Z,98857.88
2023-03-20T18:48:54.446Z,98857.25
2023-03-20T18:51:21.926Z,98853.44
2023-03-20T18:53:49.500Z,98858.81
2023-03-20T18:56:25.900Z,98864.97
2023-03-20T18:58:54.174Z,98863.97
2023-03-20T19:01:22.080Z,98865.19
2023-03-20T19:03:50.088Z,98873.22
2023-03-20T19:06:23.145Z,98868.28
2023-03-20T19:08:52.439Z,98867.19
2023-03-20T19:11:21.733Z,98877.16
2023-03-20T19:13:53.624Z,98870.00
2023-03-20T19:16:26.803Z,98867.47
2023-03-20T19:18:58.993Z,98871.84
2023-03-20T19:21:27.117Z,98877.91
2023-03-20T19:24:03.557Z,98871.66
2023-03-20T19:26:34.764Z,98868.56
2023-03-20T19:29:09.195Z,98881.44
2023-03-20T19:31:37.152Z,98874.22
2023-03-20T19:34:05.391Z,98871.72
2023-03-20T19:36:37.716Z,98862.03
2023-03-20T19:39:12.522Z,98879.72
2023-03-20T19:41:39.848Z,98871.41
2023-03-20T19:44:07.395Z,98873.06
2023-03-20T19:46:42.729Z,98865.81
2023-03-20T19:49:30.194Z,98857.97
2023-03-20T19:51:58.015Z,98866.00
2023-03-20T19:54:25.567Z,98868.84
2023-03-20T19:56:52.945Z,98865.50
2023-03-20T19:59:21.159Z,98866.94
2023-03-20T20:01:48.853Z,98858.88
2023-03-20T20:04:16.470Z,98860.59
2023-03-20T20:06:47.129Z,98856.97
2023-03-20T20:09:15.711Z,98860.59
2023-03-20T20:11:44.086Z,98853.41
2023-03-20T20:14:14.593Z,98854.50
2023-03-20T20:16:43.341Z,98856.22
2023-03-20T20:19:11.751Z,98863.03
2023-03-20T20:22:17.251Z,98853.13
2023-03-20T20:24:27.469Z,98854.63
2023-03-20T20:27:15.381Z,98856.97
2023-03-20T20:29:50.942Z,98856.66
2023-03-20T20:32:23.718Z,98855.50
2023-03-20T20:38:27.035Z,98854.06
2023-03-20T20:40:30.973Z,98857.47
2023-03-20T20:43:01.659Z,98847.41
2023-03-20T20:45:32.044Z,98853.09
2023-03-20T20:48:01.939Z,98848.94
2023-03-20T20:50:33.465Z,98850.16
2023-03-20T20:53:00.884Z,98843.31
2023-03-20T20:55:28.385Z,98852.63
2023-03-20T20:57:56.149Z,98851.94
2023-03-20T21:00:41.209Z,98855.56
2023-03-20T21:03:13.346Z,98847.59
2023-03-20T21:05:42.961Z,98852.47
2023-03-20T21:08:12.043Z,98843.91
2023-03-20T21:10:40.103Z,98839.50
2023-03-20T21:13:08.654Z,98841.47
2023-03-20T21:15:36.722Z,98850.16
2023-03-20T21:18:04.888Z,98836.84
2023-03-20T21:20:32.875Z,98838.28
2023-03-20T21:23:00.935Z,98852.91
2023-03-20T21:25:40.520Z,98836.84
2023-03-20T21:28:26.518Z,98844.94
2023-03-20T21:31:20.888Z,98852.31
2023-03-20T21:33:41.816Z,98853.91
2023-03-20T21:36:10.067Z,98852.03
2023-03-20T21:39:05.899Z,98846.03
2023-03-20T21:41:24.948Z,98847.03
2023-03-20T21:43:52.274Z,98839.84
2023-03-20T21:49:54.513Z,98845.88
2023-03-20T21:55:21.635Z,98847.19
2023-03-20T22:03:22.362Z,98858.91
2023-03-20T22:06:50.592Z,98854.63
2023-03-20T22:12:22.967Z,98864.34
2023-03-20T22:15:11.991Z,98859.41
2023-03-20T22:21:03.963Z,98869.41
2023-03-20T22:26:28.520Z,98862.47
2023-03-20T22:31:55.389Z,98856.34
2023-03-20T22:40:26.357Z,98860.41
2023-03-20T22:45:15.073Z,98862.13
2023-03-20T22:47:42.831Z,98853.47
2023-03-20T22:50:10.980Z,98855.81
2023-03-20T22:52:48.546Z,98850.91
2023-03-20T22:55:17.821Z,98846.31
2023-03-20T22:57:59.957Z,98831.56
2023-03-20T23:00:33.541Z,98839.41
2023-03-20T23:03:33.371Z,98845.22
2023-03-20T23:05:50.516Z,98832.81
2023-03-20T23:08:18.241Z,98836.19
2023-03-20T23:10:50.764Z,98825.16
